sensor_id;sensor_type;location;lat;lon;timestamp;temperature;humidity
18426;DHT22;9340;48.756;9.226;2024-03-02T00:00:36;5.60;99.90
18426;DHT22;9340;48.756;9.226;2024-03-02T00:03:04;5.60;99.90
18426;DHT22;9340;48.756;9.226;2024-03-02T00:05:31;5.60;99.90
18426;DHT22;9340;48.756;9.226;2024-03-02T00:07:59;5.60;99.90
18426;DHT22;9340;48.756;9.226;2024-03-02T00:10:34;5.60;99.90
18426;DHT22;9340;48.756;9.226;2024-03-02T00:13:03;5.50;99.90
18426;DHT22;9340;48.756;9.226;2024-03-02T00:15:41;5.60;99.90
18426;DHT22;9340;48.756;9.226;2024-03-02T00:18:11;5.50;99.90
18426;DHT22;9340;48.756;9.226;2024-03-02T00:20:39;5.60;99.90
18426;DHT22;9340;48.756;9.226;2024-03-02T00:23:09;5.50;99.90
18426;DHT22;9340;48.756;9.226;2024-03-02T00:25:38;5.50;99.90
18426;DHT22;9340;48.756;9.226;2024-03-02T00:28:05;5.50;99.90
18426;DHT22;9340;48.756;9.226;2024-03-02T00:30:57;5.50;99.90
18426;DHT22;9340;48.756;9.226;2024-03-02T00:33:26;5.40;99.90
18426;DHT22;9340;48.756;9.226;2024-03-02T00:35:54;5.40;99.90
18426;DHT22;9340;48.756;9.226;2024-03-02T00:38:23;5.30;99.90
18426;DHT22;9340;48.756;9.226;2024-03-02T00:40:49;5.30;99.90
18426;DHT22;9340;48.756;9.226;2024-03-02T00:43:44;5.30;99.90
18426;DHT22;9340;48.756;9.226;2024-03-02T00:46:13;5.20;99.90
18426;DHT22;9340;48.756;9.226;2024-03-02T00:48:48;5.30;99.90
18426;DHT22;9340;48.756;9.226;2024-03-02T00:51:16;5.30;99.90
18426;DHT22;9340;48.756;9.226;2024-03-02T00:53:45;5.30;99.90
18426;DHT22;9340;48.756;9.226;2024-03-02T00:56:12;5.30;99.90
18426;DHT22;9340;48.756;9.226;2024-03-02T00:58:40;5.20;99.90
18426;DHT22;9340;48.756;9.226;2024-03-02T01:01:06;5.10;99.90
18426;DHT22;9340;48.756;9.226;2024-03-02T01:03:33;5.20;99.90
18426;DHT22;9340;48.756;9.226;2024-03-02T01:06:00;5.10;99.90
18426;DHT22;9340;48.756;9.226;2024-03-02T01:08:27;5.20;99.90
18426;DHT22;9340;48.756;9.226;2024-03-02T01:10:55;5.20;99.90
18426;DHT22;9340;48.756;9.226;2024-03-02T01:13:22;5.20;99.90
18426;DHT22;9340;48.756;9.226;2024-03-02T01:15:49;5.30;99.90
18426;DHT22;9340;48.756;9.226;2024-03-02T01:18:16;5.30;99.90
18426;DHT22;9340;48.756;9.226;2024-03-02T01:20:42;5.30;99.90
18426;DHT22;9340;48.756;9.226;2024-03-02T01:23:08;5.20;99.90
18426;DHT22;9340;48.756;9.226;2024-03-02T01:25:35;5.10;99.90
18426;DHT22;9340;48.756;9.226;2024-03-02T01:28:04;5.10;99.90
18426;DHT22;9340;48.756;9.226;2024-03-02T01:30:31;5.10;99.90
18426;DHT22;9340;48.756;9.226;2024-03-02T01:32:57;5.10;99.90
18426;DHT22;9340;48.756;9.226;2024-03-02T01:35:25;5.10;99.90
18426;DHT22;9340;48.756;9.226;2024-03-02T01:37:53;5.00;99.90
18426;DHT22;9340;48.756;9.226;2024-03-02T01:40:20;5.00;99.90
18426;DHT22;9340;48.756;9.226;2024-03-02T01:42:47;4.90;99.90
18426;DHT22;9340;48.756;9.226;2024-03-02T01:45:15;4.90;99.90
18426;DHT22;9340;48.756;9.226;2024-03-02T01:47:41;4.90;99.90
18426;DHT22;9340;48.756;9.226;2024-03-02T01:50:09;4.80;99.90
18426;DHT22;9340;48.756;9.226;2024-03-02T01:52:37;4.80;99.90
18426;DHT22;9340;48.756;9.226;2024-03-02T01:55:04;4.60;99.90
18426;DHT22;9340;48.756;9.226;2024-03-02T01:57:32;4.60;99.90
18426;DHT22;9340;48.756;9.226;2024-03-02T02:00:00;4.60;99.90
18426;DHT22;9340;48.756;9.226;2024-03-02T02:02:28;4.60;99.90
18426;DHT22;9340;48.756;9.226;2024-03-02T02:04:54;4.60;99.90
18426;DHT22;9340;48.756;9.226;2024-03-02T02:07:21;4.60;99.90
18426;DHT22;9340;48.756;9.226;2024-03-02T02:09:48;4.60;99.90
18426;DHT22;9340;48.756;9.226;2024-03-02T02:12:14;4.50;99.90
18426;DHT22;9340;48.756;9.226;2024-03-02T02:14:47;4.50;99.90
18426;DHT22;9340;48.756;9.226;2024-03-02T02:17:14;4.50;99.90
18426;DHT22;9340;48.756;9.226;2024-03-02T02:19:42;4.40;99.90
18426;DHT22;9340;48.756;9.226;2024-03-02T02:22:10;4.40;99.90
18426;DHT22;9340;48.756;9.226;2024-03-02T02:24:39;4.40;99.90
18426;DHT22;9340;48.756;9.226;2024-03-02T02:27:07;4.30;99.90
18426;DHT22;9340;48.756;9.226;2024-03-02T02:29:33;4.30;99.90
18426;DHT22;9340;48.756;9.226;2024-03-02T02:32:00;4.30;99.90
18426;DHT22;9340;48.756;9.226;2024-03-02T02:34:27;4.20;99.90
18426;DHT22;9340;48.756;9.226;2024-03-02T02:36:54;4.20;99.90
18426;DHT22;9340;48.756;9.226;2024-03-02T02:39:22;4.10;99.90
18426;DHT22;9340;48.756;9.226;2024-03-02T02:41:49;4.00;99.90
18426;DHT22;9340;48.756;9.226;2024-03-02T02:44:16;4.00;99.90
18426;DHT22;9340;48.756;9.226;2024-03-02T02:46:42;3.90;99.90
18426;DHT22;9340;48.756;9.226;2024-03-02T02:49:09;3.90;99.90
18426;DHT22;9340;48.756;9.226;2024-03-02T02:51:36;3.80;99.90
18426;DHT22;9340;48.756;9.226;2024-03-02T02:54:02;3.70;99.90
18426;DHT22;9340;48.756;9.226;2024-03-02T02:56:30;3.70;99.90
18426;DHT22;9340;48.756;9.226;2024-03-02T02:58:57;3.60;99.90
18426;DHT22;9340;48.756;9.226;2024-03-02T03:01:24;3.60;99.90
18426;DHT22;9340;48.756;9.226;2024-03-02T03:03:51;3.60;99.90
18426;DHT22;9340;48.756;9.226;2024-03-02T03:06:17;3.50;99.90
18426;DHT22;9340;48.756;9.226;2024-03-02T03:08:44;3.50;99.90
18426;DHT22;9340;48.756;9.226;2024-03-02T03:11:10;3.50;99.90
18426;DHT22;9340;48.756;9.226;2024-03-02T03:13:38;3.50;99.90
18426;DHT22;9340;48.756;9.226;2024-03-02T03:16:05;3.50;99.90
18426;DHT22;9340;48.756;9.226;2024-03-02T03:18:32;3.50;99.90
18426;DHT22;9340;48.756;9.226;2024-03-02T03:20:59;3.50;99.90
18426;DHT22;9340;48.756;9.226;2024-03-02T03:23:25;3.50;99.90
18426;DHT22;9340;48.756;9.226;2024-03-02T03:25:52;3.60;99.90
18426;DHT22;9340;48.756;9.226;2024-03-02T03:28:18;3.50;99.90
18426;DHT22;9340;48.756;9.226;2024-03-02T03:30:46;3.50;99.90
18426;DHT22;9340;48.756;9.226;2024-03-02T03:33:13;3.50;99.90
18426;DHT22;9340;48.756;9.226;2024-03-02T03:35:40;3.40;99.90
18426;DHT22;9340;48.756;9.226;2024-03-02T03:38:06;3.40;99.90
18426;DHT22;9340;48.756;9.226;2024-03-02T03:40:33;3.30;99.90
18426;DHT22;9340;48.756;9.226;2024-03-02T03:43:00;3.30;99.90
18426;DHT22;9340;48.756;9.226;2024-03-02T03:45:26;3.20;99.90
18426;DHT22;9340;48.756;9.226;2024-03-02T03:47:54;3.20;99.90
18426;DHT22;9340;48.756;9.226;2024-03-02T03:50:21;3.20;99.90
18426;DHT22;9340;48.756;9.226;2024-03-02T03:52:48;3.10;99.90
18426;DHT22;9340;48.756;9.226;2024-03-02T03:55:14;3.10;99.90
18426;DHT22;9340;48.756;9.226;2024-03-02T03:57:41;3.10;99.90
18426;DHT22;9340;48.756;9.226;2024-03-02T04:00:08;3.10;99.90
18426;DHT22;9340;48.756;9.226;2024-03-02T04:02:36;3.10;99.90
18426;DHT22;9340;48.756;9.226;2024-03-02T04:05:05;3.10;99.90
18426;DHT22;9340;48.756;9.226;2024-03-02T04:07:35;3.10;99.90
18426;DHT22;9340;48.756;9.226;2024-03-02T04:10:07;3.10;99.90
18426;DHT22;9340;48.756;9.226;2024-03-02T04:12:34;3.00;99.90
18426;DHT22;9340;48.756;9.226;2024-03-02T04:15:00;3.00;99.90
18426;DHT22;9340;48.756;9.226;2024-03-02T04:17:29;3.00;99.90
18426;DHT22;9340;48.756;9.226;2024-03-02T04:19:57;2.90;99.90
18426;DHT22;9340;48.756;9.226;2024-03-02T04:22:25;2.90;99.90
18426;DHT22;9340;48.756;9.226;2024-03-02T04:24:52;2.90;99.90
18426;DHT22;9340;48.756;9.226;2024-03-02T04:27:18;2.90;99.90
18426;DHT22;9340;48.756;9.226;2024-03-02T04:29:45;2.90;99.90
18426;DHT22;9340;48.756;9.226;2024-03-02T04:32:12;2.90;99.90
18426;DHT22;9340;48.756;9.226;2024-03-02T04:34:38;2.90;99.90
18426;DHT22;9340;48.756;9.226;2024-03-02T04:37:05;2.90;99.90
18426;DHT22;9340;48.756;9.226;2024-03-02T04:39:34;2.90;99.90
18426;DHT22;9340;48.756;9.226;2024-03-02T04:42:01;2.90;99.90
18426;DHT22;9340;48.756;9.226;2024-03-02T04:44:28;2.90;99.90
18426;DHT22;9340;48.756;9.226;2024-03-02T04:46:54;2.90;99.90
18426;DHT22;9340;48.756;9.226;2024-03-02T04:49:21;2.80;99.90
18426;DHT22;9340;48.756;9.226;2024-03-02T04:51:48;2.80;99.90
18426;DHT22;9340;48.756;9.226;2024-03-02T04:54:14;2.80;99.90
18426;DHT22;9340;48.756;9.226;2024-03-02T04:56:42;2.70;99.90
18426;DHT22;9340;48.756;9.226;2024-03-02T04:59:15;2.70;99.90
18426;DHT22;9340;48.756;9.226;2024-03-02T05:01:42;2.70;99.90
18426;DHT22;9340;48.756;9.226;2024-03-02T05:04:09;2.80;99.90
18426;DHT22;9340;48.756;9.226;2024-03-02T05:06:37;2.70;99.90
18426;DHT22;9340;48.756;9.226;2024-03-02T05:09:03;2.70;99.90
18426;DHT22;9340;48.756;9.226;2024-03-02T05:11:30;2.80;99.90
18426;DHT22;9340;48.756;9.226;2024-03-02T05:14:25;2.80;99.90
18426;DHT22;9340;48.756;9.226;2024-03-02T05:16:52;2.70;99.90
18426;DHT22;9340;48.756;9.226;2024-03-02T05:19:18;2.70;99.90
18426;DHT22;9340;48.756;9.226;2024-03-02T05:21:45;2.60;99.90
18426;DHT22;9340;48.756;9.226;2024-03-02T05:24:12;2.60;99.90
18426;DHT22;9340;48.756;9.226;2024-03-02T05:26:38;2.50;99.90
18426;DHT22;9340;48.756;9.226;2024-03-02T05:29:05;2.50;99.90
18426;DHT22;9340;48.756;9.226;2024-03-02T05:31:33;2.50;99.90
18426;DHT22;9340;48.756;9.226;2024-03-02T05:33:59;2.50;99.90
18426;DHT22;9340;48.756;9.226;2024-03-02T05:36:26;2.50;99.90
18426;DHT22;9340;48.756;9.226;2024-03-02T05:38:53;2.60;99.90
18426;DHT22;9340;48.756;9.226;2024-03-02T05:41:20;2.50;99.90
18426;DHT22;9340;48.756;9.226;2024-03-02T05:43:46;2.60;99.90
18426;DHT22;9340;48.756;9.226;2024-03-02T05:46:13;2.50;99.90
18426;DHT22;9340;48.756;9.226;2024-03-02T05:48:41;2.50;99.90
18426;DHT22;9340;48.756;9.226;2024-03-02T05:51:07;2.50;99.90
18426;DHT22;9340;48.756;9.226;2024-03-02T05:53:34;2.40;99.90
18426;DHT22;9340;48.756;9.226;2024-03-02T05:56:03;2.40;99.90
18426;DHT22;9340;48.756;9.226;2024-03-02T05:58:30;2.40;99.90
18426;DHT22;9340;48.756;9.226;2024-03-02T06:01:08;2.40;99.90
18426;DHT22;9340;48.756;9.226;2024-03-02T06:03:35;2.40;99.90
18426;DHT22;9340;48.756;9.226;2024-03-02T06:06:03;2.40;99.90
18426;DHT22;9340;48.756;9.226;2024-03-02T06:08:30;2.40;99.90
18426;DHT22;9340;48.756;9.226;2024-03-02T06:10:57;2.40;99.90
18426;DHT22;9340;48.756;9.226;2024-03-02T06:13:24;2.40;99.90
18426;DHT22;9340;48.756;9.226;2024-03-02T06:15:52;2.40;99.90
18426;DHT22;9340;48.756;9.226;2024-03-02T06:18:18;2.50;99.90
18426;DHT22;9340;48.756;9.226;2024-03-02T06:20:45;2.40;99.90
18426;DHT22;9340;48.756;9.226;2024-03-02T06:23:13;2.50;99.90
18426;DHT22;9340;48.756;9.226;2024-03-02T06:25:40;2.50;99.90
18426;DHT22;9340;48.756;9.226;2024-03-02T06:28:07;2.50;99.90
18426;DHT22;9340;48.756;9.226;2024-03-02T06:30:33;2.60;99.90
18426;DHT22;9340;48.756;9.226;2024-03-02T06:33:00;2.60;99.90
18426;DHT22;9340;48.756;9.226;2024-03-02T06:35:26;2.70;99.90
18426;DHT22;9340;48.756;9.226;2024-03-02T06:37:53;2.80;99.90
18426;DHT22;9340;48.756;9.226;2024-03-02T06:40:21;2.90;99.90
18426;DHT22;9340;48.756;9.226;2024-03-02T06:42:48;3.10;99.90
18426;DHT22;9340;48.756;9.226;2024-03-02T06:45:14;3.10;99.90
18426;DHT22;9340;48.756;9.226;2024-03-02T06:47:41;3.30;99.90
18426;DHT22;9340;48.756;9.226;2024-03-02T06:50:08;3.40;99.90
18426;DHT22;9340;48.756;9.226;2024-03-02T06:52:35;3.50;99.90
18426;DHT22;9340;48.756;9.226;2024-03-02T06:55:02;3.50;99.90
18426;DHT22;9340;48.756;9.226;2024-03-02T06:57:31;3.60;99.90
18426;DHT22;9340;48.756;9.226;2024-03-02T06:59:57;3.60;99.90
18426;DHT22;9340;48.756;9.226;2024-03-02T07:02:25;3.70;99.90
18426;DHT22;9340;48.756;9.226;2024-03-02T07:04:52;3.90;99.90
18426;DHT22;9340;48.756;9.226;2024-03-02T07:07:18;4.00;99.90
18426;DHT22;9340;48.756;9.226;2024-03-02T07:09:46;4.10;99.90
18426;DHT22;9340;48.756;9.226;2024-03-02T07:12:12;4.30;99.90
18426;DHT22;9340;48.756;9.226;2024-03-02T07:14:40;4.30;99.90
18426;DHT22;9340;48.756;9.226;2024-03-02T07:17:25;4.50;99.90
18426;DHT22;9340;48.756;9.226;2024-03-02T07:19:52;4.80;99.90
18426;DHT22;9340;48.756;9.226;2024-03-02T07:22:19;4.90;99.90
18426;DHT22;9340;48.756;9.226;2024-03-02T07:24:45;5.10;99.90
18426;DHT22;9340;48.756;9.226;2024-03-02T07:27:13;5.30;99.90
18426;DHT22;9340;48.756;9.226;2024-03-02T07:29:41;5.40;99.90
18426;DHT22;9340;48.756;9.226;2024-03-02T07:32:09;5.60;99.90
18426;DHT22;9340;48.756;9.226;2024-03-02T07:34:36;5.70;99.90
18426;DHT22;9340;48.756;9.226;2024-03-02T07:37:04;5.90;99.90
18426;DHT22;9340;48.756;9.226;2024-03-02T07:39:31;6.00;99.90
18426;DHT22;9340;48.756;9.226;2024-03-02T07:41:58;6.20;99.90
18426;DHT22;9340;48.756;9.226;2024-03-02T07:44:24;6.30;99.90
18426;DHT22;9340;48.756;9.226;2024-03-02T07:46:52;6.50;99.90
18426;DHT22;9340;48.756;9.226;2024-03-02T07:49:19;6.60;99.90
18426;DHT22;9340;48.756;9.226;2024-03-02T07:51:45;6.70;99.90
18426;DHT22;9340;48.756;9.226;2024-03-02T07:54:12;6.50;99.90
18426;DHT22;9340;48.756;9.226;2024-03-02T07:56:39;6.60;99.90
18426;DHT22;9340;48.756;9.226;2024-03-02T07:59:05;6.70;99.90
18426;DHT22;9340;48.756;9.226;2024-03-02T08:01:33;6.80;99.90
18426;DHT22;9340;48.756;9.226;2024-03-02T08:04:01;6.80;99.90
18426;DHT22;9340;48.756;9.226;2024-03-02T08:06:29;6.90;99.90
18426;DHT22;9340;48.756;9.226;2024-03-02T08:08:56;6.90;99.90
18426;DHT22;9340;48.756;9.226;2024-03-02T08:11:23;7.00;99.90
18426;DHT22;9340;48.756;9.226;2024-03-02T08:13:50;6.70;99.90
18426;DHT22;9340;48.756;9.226;2024-03-02T08:16:18;6.80;99.90
18426;DHT22;9340;48.756;9.226;2024-03-02T08:18:45;6.80;99.90
18426;DHT22;9340;48.756;9.226;2024-03-02T08:21:13;6.90;99.90
18426;DHT22;9340;48.756;9.226;2024-03-02T08:23:40;7.00;99.90
18426;DHT22;9340;48.756;9.226;2024-03-02T08:26:07;6.90;99.90
18426;DHT22;9340;48.756;9.226;2024-03-02T08:28:34;7.00;99.90
18426;DHT22;9340;48.756;9.226;2024-03-02T08:31:02;6.90;99.90
18426;DHT22;9340;48.756;9.226;2024-03-02T08:33:29;6.80;99.90
18426;DHT22;9340;48.756;9.226;2024-03-02T08:35:56;6.80;99.90
18426;DHT22;9340;48.756;9.226;2024-03-02T08:38:24;6.80;99.90
18426;DHT22;9340;48.756;9.226;2024-03-02T08:40:50;6.80;99.90
18426;DHT22;9340;48.756;9.226;2024-03-02T08:43:17;6.90;99.90
18426;DHT22;9340;48.756;9.226;2024-03-02T08:45:44;7.10;99.90
18426;DHT22;9340;48.756;9.226;2024-03-02T08:48:12;7.20;99.90
18426;DHT22;9340;48.756;9.226;2024-03-02T08:50:39;7.40;99.90
18426;DHT22;9340;48.756;9.226;2024-03-02T08:53:06;7.40;99.90
18426;DHT22;9340;48.756;9.226;2024-03-02T08:55:34;7.50;99.90
18426;DHT22;9340;48.756;9.226;2024-03-02T08:58:01;7.60;99.90
18426;DHT22;9340;48.756;9.226;2024-03-02T09:00:27;7.80;99.90
18426;DHT22;9340;48.756;9.226;2024-03-02T09:02:54;7.90;99.90
18426;DHT22;9340;48.756;9.226;2024-03-02T09:05:21;8.00;99.90
18426;DHT22;9340;48.756;9.226;2024-03-02T09:07:48;8.10;99.90
18426;DHT22;9340;48.756;9.226;2024-03-02T09:10:14;8.10;99.90
18426;DHT22;9340;48.756;9.226;2024-03-02T09:12:43;8.30;99.90
18426;DHT22;9340;48.756;9.226;2024-03-02T09:15:09;8.30;99.90
18426;DHT22;9340;48.756;9.226;2024-03-02T09:17:36;8.40;99.90
18426;DHT22;9340;48.756;9.226;2024-03-02T09:20:04;8.50;99.90
18426;DHT22;9340;48.756;9.226;2024-03-02T09:22:30;8.60;99.90
18426;DHT22;9340;48.756;9.226;2024-03-02T09:24:57;8.70;99.90
18426;DHT22;9340;48.756;9.226;2024-03-02T09:27:24;8.80;99.90
18426;DHT22;9340;48.756;9.226;2024-03-02T09:29:52;8.90;99.90
18426;DHT22;9340;48.756;9.226;2024-03-02T09:32:19;9.00;99.90
18426;DHT22;9340;48.756;9.226;2024-03-02T09:34:46;9.10;99.90
18426;DHT22;9340;48.756;9.226;2024-03-02T09:37:13;9.20;99.90
18426;DHT22;9340;48.756;9.226;2024-03-02T09:39:40;9.30;99.90
18426;DHT22;9340;48.756;9.226;2024-03-02T09:42:09;9.50;99.90
18426;DHT22;9340;48.756;9.226;2024-03-02T09:44:36;9.60;99.90
18426;DHT22;9340;48.756;9.226;2024-03-02T09:47:06;9.70;99.90
18426;DHT22;9340;48.756;9.226;2024-03-02T09:49:33;9.80;99.90
18426;DHT22;9340;48.756;9.226;2024-03-02T09:51:59;9.80;99.90
18426;DHT22;9340;48.756;9.226;2024-03-02T09:54:27;9.90;99.90
18426;DHT22;9340;48.756;9.226;2024-03-02T09:56:54;10.00;99.90
18426;DHT22;9340;48.756;9.226;2024-03-02T09:59:21;10.00;99.90
18426;DHT22;9340;48.756;9.226;2024-03-02T10:01:57;10.10;99.90
18426;DHT22;9340;48.756;9.226;2024-03-02T10:04:27;10.20;99.90
18426;DHT22;9340;48.756;9.226;2024-03-02T10:07:10;10.30;99.90
18426;DHT22;9340;48.756;9.226;2024-03-02T10:09:37;10.30;99.90
18426;DHT22;9340;48.756;9.226;2024-03-02T10:12:05;10.50;99.90
18426;DHT22;9340;48.756;9.226;2024-03-02T10:14:32;10.50;99.90
18426;DHT22;9340;48.756;9.226;2024-03-02T10:17:02;10.60;99.90
18426;DHT22;9340;48.756;9.226;2024-03-02T10:19:31;10.60;99.90
18426;DHT22;9340;48.756;9.226;2024-03-02T10:21:58;10.60;99.90
18426;DHT22;9340;48.756;9.226;2024-03-02T10:24:25;10.70;99.90
18426;DHT22;9340;48.756;9.226;2024-03-02T10:26:52;10.80;99.90
18426;DHT22;9340;48.756;9.226;2024-03-02T10:29:19;10.90;99.90
18426;DHT22;9340;48.756;9.226;2024-03-02T10:31:46;11.00;99.90
18426;DHT22;9340;48.756;9.226;2024-03-02T10:34:13;11.10;99.90
18426;DHT22;9340;48.756;9.226;2024-03-02T10:36:44;11.20;99.90
18426;DHT22;9340;48.756;9.226;2024-03-02T10:39:13;11.20;99.90
18426;DHT22;9340;48.756;9.226;2024-03-02T10:41:39;11.30;99.90
18426;DHT22;9340;48.756;9.226;2024-03-02T10:44:08;11.40;99.90
18426;DHT22;9340;48.756;9.226;2024-03-02T10:46:36;11.40;99.90
18426;DHT22;9340;48.756;9.226;2024-03-02T10:49:04;11.50;99.90
18426;DHT22;9340;48.756;9.226;2024-03-02T10:51:33;11.60;99.90
18426;DHT22;9340;48.756;9.226;2024-03-02T10:54:03;11.70;99.90
18426;DHT22;9340;48.756;9.226;2024-03-02T10:56:32;11.80;99.90
18426;DHT22;9340;48.756;9.226;2024-03-02T10:59:02;11.90;99.90
18426;DHT22;9340;48.756;9.226;2024-03-02T11:01:31;12.00;99.90
18426;DHT22;9340;48.756;9.226;2024-03-02T11:03:59;12.10;99.90
18426;DHT22;9340;48.756;9.226;2024-03-02T11:06:28;12.20;99.90
18426;DHT22;9340;48.756;9.226;2024-03-02T11:08:58;12.30;99.90
18426;DHT22;9340;48.756;9.226;2024-03-02T11:11:32;12.40;99.90
18426;DHT22;9340;48.756;9.226;2024-03-02T11:14:04;12.50;99.90
18426;DHT22;9340;48.756;9.226;2024-03-02T11:16:35;12.60;99.90
18426;DHT22;9340;48.756;9.226;2024-03-02T11:19:04;12.60;99.90
18426;DHT22;9340;48.756;9.226;2024-03-02T11:21:32;12.80;99.90
18426;DHT22;9340;48.756;9.226;2024-03-02T11:23:59;12.80;99.90
18426;DHT22;9340;48.756;9.226;2024-03-02T11:26:27;12.90;99.90
18426;DHT22;9340;48.756;9.226;2024-03-02T11:28:55;12.90;99.90
18426;DHT22;9340;48.756;9.226;2024-03-02T11:31:57;12.90;99.90
18426;DHT22;9340;48.756;9.226;2024-03-02T11:34:29;13.00;99.90
18426;DHT22;9340;48.756;9.226;2024-03-02T11:36:56;13.10;99.90
18426;DHT22;9340;48.756;9.226;2024-03-02T11:39:22;13.20;99.90
18426;DHT22;9340;48.756;9.226;2024-03-02T11:41:49;13.40;99.90
18426;DHT22;9340;48.756;9.226;2024-03-02T11:44:17;13.40;99.90
18426;DHT22;9340;48.756;9.226;2024-03-02T11:46:45;13.50;99.90
18426;DHT22;9340;48.756;9.226;2024-03-02T11:49:14;13.60;99.90
18426;DHT22;9340;48.756;9.226;2024-03-02T11:51:51;13.70;99.90
18426;DHT22;9340;48.756;9.226;2024-03-02T11:54:19;13.70;99.90
18426;DHT22;9340;48.756;9.226;2024-03-02T11:56:46;13.80;99.90
18426;DHT22;9340;48.756;9.226;2024-03-02T11:59:13;13.80;99.90
18426;DHT22;9340;48.756;9.226;2024-03-02T12:01:42;13.90;99.90
18426;DHT22;9340;48.756;9.226;2024-03-02T12:04:10;13.90;99.90
18426;DHT22;9340;48.756;9.226;2024-03-02T12:06:37;14.00;99.90
18426;DHT22;9340;48.756;9.226;2024-03-02T12:09:04;14.00;99.90
18426;DHT22;9340;48.756;9.226;2024-03-02T12:11:32;14.00;99.90
18426;DHT22;9340;48.756;9.226;2024-03-02T12:13:58;13.90;99.90
18426;DHT22;9340;48.756;9.226;2024-03-02T12:16:25;14.00;99.90
18426;DHT22;9340;48.756;9.226;2024-03-02T12:18:54;14.20;99.90
18426;DHT22;9340;48.756;9.226;2024-03-02T12:21:21;14.30;99.90
18426;DHT22;9340;48.756;9.226;2024-03-02T12:23:47;14.50;99.90
18426;DHT22;9340;48.756;9.226;2024-03-02T12:26:15;14.50;99.90
18426;DHT22;9340;48.756;9.226;2024-03-02T12:28:43;14.60;99.90
18426;DHT22;9340;48.756;9.226;2024-03-02T12:31:10;14.70;99.90
18426;DHT22;9340;48.756;9.226;2024-03-02T12:33:36;14.80;99.90
18426;DHT22;9340;48.756;9.226;2024-03-02T12:36:05;14.80;99.90
18426;DHT22;9340;48.756;9.226;2024-03-02T12:38:37;14.90;99.90
18426;DHT22;9340;48.756;9.226;2024-03-02T12:41:04;15.00;99.90
18426;DHT22;9340;48.756;9.226;2024-03-02T12:43:31;15.10;99.90
18426;DHT22;9340;48.756;9.226;2024-03-02T12:45:58;15.10;99.90
18426;DHT22;9340;48.756;9.226;2024-03-02T12:48:25;15.10;99.90
18426;DHT22;9340;48.756;9.226;2024-03-02T12:50:52;15.00;99.90
18426;DHT22;9340;48.756;9.226;2024-03-02T12:53:21;15.10;99.90
18426;DHT22;9340;48.756;9.226;2024-03-02T12:55:48;15.10;99.90
18426;DHT22;9340;48.756;9.226;2024-03-02T12:58:19;15.20;99.90
18426;DHT22;9340;48.756;9.226;2024-03-02T13:00:46;15.20;99.90
18426;DHT22;9340;48.756;9.226;2024-03-02T13:03:13;15.20;99.90
18426;DHT22;9340;48.756;9.226;2024-03-02T13:05:41;15.30;99.90
18426;DHT22;9340;48.756;9.226;2024-03-02T13:08:08;15.20;99.90
18426;DHT22;9340;48.756;9.226;2024-03-02T13:10:36;15.30;99.90
18426;DHT22;9340;48.756;9.226;2024-03-02T13:13:04;15.30;99.90
18426;DHT22;9340;48.756;9.226;2024-03-02T13:15:33;15.30;99.90
18426;DHT22;9340;48.756;9.226;2024-03-02T13:18:00;15.30;99.90
18426;DHT22;9340;48.756;9.226;2024-03-02T13:20:30;15.30;99.90
18426;DHT22;9340;48.756;9.226;2024-03-02T13:22:57;15.40;99.90
18426;DHT22;9340;48.756;9.226;2024-03-02T13:25:24;15.30;99.90
18426;DHT22;9340;48.756;9.226;2024-03-02T13:27:53;15.30;99.90
18426;DHT22;9340;48.756;9.226;2024-03-02T13:30:20;15.30;99.90
18426;DHT22;9340;48.756;9.226;2024-03-02T13:32:46;15.30;99.90
18426;DHT22;9340;48.756;9.226;2024-03-02T13:35:13;15.30;99.90
18426;DHT22;9340;48.756;9.226;2024-03-02T13:37:40;15.30;99.90
18426;DHT22;9340;48.756;9.226;2024-03-02T13:40:07;15.30;99.90
18426;DHT22;9340;48.756;9.226;2024-03-02T13:42:38;15.30;99.90
18426;DHT22;9340;48.756;9.226;2024-03-02T13:45:07;15.30;99.90
18426;DHT22;9340;48.756;9.226;2024-03-02T13:47:34;15.30;99.90
18426;DHT22;9340;48.756;9.226;2024-03-02T13:50:00;15.20;99.90
18426;DHT22;9340;48.756;9.226;2024-03-02T13:52:28;15.20;99.90
18426;DHT22;9340;48.756;9.226;2024-03-02T13:54:55;15.20;99.90
18426;DHT22;9340;48.756;9.226;2024-03-02T13:57:22;15.20;99.90
18426;DHT22;9340;48.756;9.226;2024-03-02T13:59:49;15.30;99.90
18426;DHT22;9340;48.756;9.226;2024-03-02T14:02:19;15.30;99.90
18426;DHT22;9340;48.756;9.226;2024-03-02T14:04:45;15.40;99.90
18426;DHT22;9340;48.756;9.226;2024-03-02T14:07:14;15.30;99.90
18426;DHT22;9340;48.756;9.226;2024-03-02T14:09:42;15.40;99.90
18426;DHT22;9340;48.756;9.226;2024-03-02T14:12:10;15.30;99.90
18426;DHT22;9340;48.756;9.226;2024-03-02T14:14:38;15.20;99.90
18426;DHT22;9340;48.756;9.226;2024-03-02T14:17:05;15.20;99.90
18426;DHT22;9340;48.756;9.226;2024-03-02T14:19:37;15.20;99.90
18426;DHT22;9340;48.756;9.226;2024-03-02T14:22:04;15.20;99.90
18426;DHT22;9340;48.756;9.226;2024-03-02T14:24:30;15.20;99.90
18426;DHT22;9340;48.756;9.226;2024-03-02T14:26:57;15.10;99.90
18426;DHT22;9340;48.756;9.226;2024-03-02T14:29:27;15.00;99.90
18426;DHT22;9340;48.756;9.226;2024-03-02T14:31:54;15.00;99.90
18426;DHT22;9340;48.756;9.226;2024-03-02T14:34:20;15.00;99.90
18426;DHT22;9340;48.756;9.226;2024-03-02T14:36:48;14.90;99.90
18426;DHT22;9340;48.756;9.226;2024-03-02T14:39:15;15.00;99.90
18426;DHT22;9340;48.756;9.226;2024-03-02T14:41:44;14.90;99.90
18426;DHT22;9340;48.756;9.226;2024-03-02T14:44:10;14.90;99.90
18426;DHT22;9340;48.756;9.226;2024-03-02T14:46:37;14.90;99.90
18426;DHT22;9340;48.756;9.226;2024-03-02T14:49:04;14.90;99.90
18426;DHT22;9340;48.756;9.226;2024-03-02T14:51:30;14.90;99.90
18426;DHT22;9340;48.756;9.226;2024-03-02T14:53:58;14.80;99.90
18426;DHT22;9340;48.756;9.226;2024-03-02T14:56:25;14.80;99.90
18426;DHT22;9340;48.756;9.226;2024-03-02T14:58:52;14.80;99.90
18426;DHT22;9340;48.756;9.226;2024-03-02T15:01:19;14.90;99.90
18426;DHT22;9340;48.756;9.226;2024-03-02T15:03:48;14.90;99.90
18426;DHT22;9340;48.756;9.226;2024-03-02T15:06:14;15.00;99.90
18426;DHT22;9340;48.756;9.226;2024-03-02T15:08:41;14.90;99.90
18426;DHT22;9340;48.756;9.226;2024-03-02T15:11:09;14.90;99.90
18426;DHT22;9340;48.756;9.226;2024-03-02T15:13:36;14.80;99.90
18426;DHT22;9340;48.756;9.226;2024-03-02T15:16:03;14.90;99.90
18426;DHT22;9340;48.756;9.226;2024-03-02T15:18:30;14.80;99.90
18426;DHT22;9340;48.756;9.226;2024-03-02T15:20:57;14.80;99.90
18426;DHT22;9340;48.756;9.226;2024-03-02T15:23:23;14.70;99.90
18426;DHT22;9340;48.756;9.226;2024-03-02T15:25:50;14.60;99.90
18426;DHT22;9340;48.756;9.226;2024-03-02T15:28:18;14.50;99.90
18426;DHT22;9340;48.756;9.226;2024-03-02T15:30:45;14.50;99.90
18426;DHT22;9340;48.756;9.226;2024-03-02T15:33:11;14.30;99.90
18426;DHT22;9340;48.756;9.226;2024-03-02T15:35:38;14.20;99.90
18426;DHT22;9340;48.756;9.226;2024-03-02T15:38:04;14.00;99.90
18426;DHT22;9340;48.756;9.226;2024-03-02T15:40:31;13.90;99.90
18426;DHT22;9340;48.756;9.226;2024-03-02T15:42:58;13.80;99.90
18426;DHT22;9340;48.756;9.226;2024-03-02T15:45:26;13.70;99.90
18426;DHT22;9340;48.756;9.226;2024-03-02T15:47:58;13.60;99.90
18426;DHT22;9340;48.756;9.226;2024-03-02T15:50:25;13.50;99.90
18426;DHT22;9340;48.756;9.226;2024-03-02T15:52:52;13.50;99.90
18426;DHT22;9340;48.756;9.226;2024-03-02T15:55:21;13.50;99.90
18426;DHT22;9340;48.756;9.226;2024-03-02T15:57:48;13.40;99.90